createdAt,value
2018-01-01T00:01:41.436Z,112.43
2018-01-01T00:04:08.890Z,116.47
2018-01-01T00:06:37.110Z,103.37
2018-01-01T00:09:04.567Z,106.23
2018-01-01T00:11:32.023Z,106.30
2018-01-01T00:13:59.519Z,116.77
2018-01-01T00:16:26.991Z,105.10
2018-01-01T00:18:54.446Z,103.10
2018-01-01T00:21:21.900Z,104.30
2018-01-01T00:23:49.369Z,115.00
2018-01-01T00:26:16.815Z,88.90
2018-01-01T00:28:44.281Z,109.37
2018-01-01T00:31:11.730Z,79.17
2018-01-01T00:33:39.180Z,75.67
2018-01-01T00:36:06.634Z,155.63
2018-01-01T00:38:34.078Z,90.03
2018-01-01T00:41:01.526Z,77.70
2018-01-01T00:43:29.739Z,89.00
2018-01-01T00:45:57.202Z,95.30
2018-01-01T00:48:24.640Z,88.57
2018-01-01T00:50:52.102Z,84.67
2018-01-01T00:53:19.561Z,3.70
2018-01-01T00:55:47.019Z,74.67
2018-01-01T00:58:14.454Z,100.70
2018-01-01T01:00:42.670Z,108.70
2018-01-01T01:03:10.112Z,99.47
2018-01-01T01:05:37.562Z,113.40
2018-01-01T01:08:05.013Z,109.50
2018-01-01T01:10:32.462Z,104.10
2018-01-01T01:12:59.907Z,95.27
2018-01-01T01:15:28.127Z,100.57
2018-01-01T01:17:55.564Z,17.33
2018-01-01T01:20:23.015Z,13.40
2018-01-01T01:22:50.458Z,13.27
2018-01-01T01:25:17.911Z,103.90
2018-01-01T01:27:45.350Z,96.30
2018-01-01T01:30:13.567Z,100.80
2018-01-01T01:32:41.007Z,31.20
2018-01-01T01:35:08.452Z,9.97
2018-01-01T01:37:36.653Z,12.07
2018-01-01T01:40:04.098Z,10.70
2018-01-01T01:42:31.550Z,11.57
2018-01-01T01:44:59.019Z,17.40
2018-01-01T01:47:26.459Z,123.73
2018-01-01T01:49:53.930Z,130.53
2018-01-01T01:52:21.378Z,106.97
2018-01-01T01:54:48.847Z,110.27
2018-01-01T01:57:16.334Z,127.70
2018-01-01T01:59:43.796Z,120.23
2018-01-01T02:02:11.243Z,101.37
2018-01-01T02:04:38.695Z,168.87
2018-01-01T02:07:06.134Z,275.17
2018-01-01T02:09:33.574Z,204.23
2018-01-01T02:12:01.026Z,202.83
2018-01-01T02:14:29.242Z,189.30
2018-01-01T02:16:56.714Z,181.33
2018-01-01T02:19:24.168Z,127.67
2018-01-01T02:21:51.623Z,187.10
2018-01-01T02:24:19.071Z,171.90
2018-01-01T02:26:46.520Z,44.67
2018-01-01T02:29:13.967Z,16.37
2018-01-01T02:31:41.417Z,9.80
2018-01-01T02:34:08.851Z,14.07
2018-01-01T02:36:37.074Z,13.33
2018-01-01T02:39:04.535Z,151.97
2018-01-01T02:41:31.983Z,9.63
2018-01-01T02:43:59.408Z,10.77
2018-01-01T02:46:27.617Z,8.07
2018-01-01T02:48:55.041Z,7.67
2018-01-01T02:51:22.478Z,9.63
2018-01-01T02:53:50.683Z,9.83
2018-01-01T02:56:18.121Z,77.53
2018-01-01T02:58:45.562Z,73.00
2018-01-01T03:01:12.998Z,8.10
2018-01-01T03:03:40.434Z,24.80
2018-01-01T03:06:07.882Z,58.63
2018-01-01T03:08:35.309Z,9.10
2018-01-01T03:11:02.751Z,9.17
2018-01-01T03:13:30.955Z,195.03
2018-01-01T03:15:58.388Z,7.40
2018-01-01T03:18:26.584Z,5.67
2018-01-01T03:20:54.018Z,6.70
2018-01-01T03:23:22.223Z,7.93
2018-01-01T03:25:49.680Z,5.17
2018-01-01T03:28:17.109Z,4.97
2018-01-01T03:30:45.322Z,154.57
2018-01-01T03:33:12.766Z,4.07
2018-01-01T03:35:40.204Z,3.97
2018-01-01T03:38:07.641Z,4.47
2018-01-01T03:40:35.854Z,4.20
2018-01-01T03:43:03.313Z,24.17
2018-01-01T03:45:30.753Z,22.27
2018-01-01T03:47:58.204Z,3.00
2018-01-01T03:50:26.399Z,3.10
2018-01-01T03:52:53.835Z,2.27
2018-01-01T03:55:22.046Z,2.83
2018-01-01T03:57:49.477Z,2.70
2018-01-01T04:00:16.905Z,2.20
2018-01-01T04:02:45.119Z,2.20
2018-01-01T04:05:12.545Z,2.33
2018-01-01T04:07:40.749Z,2.10
2018-01-01T04:10:08.182Z,1.80
2018-01-01T04:12:36.390Z,1.83
2018-01-01T04:15:03.823Z,1.47
2018-01-01T04:17:31.254Z,1.60
2018-01-01T04:19:59.458Z,1.53
2018-01-01T04:22:27.657Z,1.93
2018-01-01T04:24:55.089Z,24.80
2018-01-01T04:27:22.554Z,1.90
2018-01-01T04:29:49.982Z,1.27
2018-01-01T04:32:18.202Z,143.10
2018-01-01T04:34:45.650Z,92.87
2018-01-01T04:37:13.110Z,7.87
2018-01-01T04:39:40.560Z,37.23
2018-01-01T04:42:08.002Z,185.27
2018-01-01T04:44:35.442Z,24.37
2018-01-01T04:47:03.647Z,22.73
2018-01-01T04:49:31.850Z,2.00
2018-01-01T04:51:59.297Z,180.90
2018-01-01T04:54:26.734Z,25.43
2018-01-01T04:56:54.185Z,1.13
2018-01-01T04:59:21.605Z,3.90
2018-01-01T05:01:49.821Z,48.03
2018-01-01T05:04:17.289Z,101.57
2018-01-01T05:06:44.718Z,9.97
2018-01-01T05:09:12.155Z,2.47
2018-01-01T05:11:40.359Z,1.80
2018-01-01T05:14:08.547Z,2.43
2018-01-01T05:16:35.990Z,27.57
2018-01-01T05:19:03.426Z,51.07
2018-01-01T05:21:31.629Z,1.80
2018-01-01T05:23:59.072Z,168.93
2018-01-01T05:26:26.529Z,125.77
2018-01-01T05:28:53.955Z,1.83
2018-01-01T05:31:21.410Z,176.93
2018-01-01T05:33:48.838Z,4.90
2018-01-01T05:36:16.289Z,182.87
2018-01-01T05:38:43.729Z,207.33
2018-01-01T05:41:11.174Z,3.00
2018-01-01T05:43:38.617Z,1.83
2018-01-01T05:46:06.811Z,1.77
2018-01-01T05:48:34.245Z,1.27
2018-01-01T05:51:01.696Z,1.60
2018-01-01T05:53:29.884Z,1.73
2018-01-01T05:55:57.322Z,1.30
2018-01-01T05:58:25.517Z,1.80
2018-01-01T06:00:52.951Z,1.30
2018-01-01T06:03:21.166Z,214.90
2018-01-01T06:05:48.600Z,40.70
2018-01-01T06:08:16.051Z,37.77
2018-01-01T06:10:44.252Z,1.20
2018-01-01T06:13:11.702Z,19.50
2018-01-01T06:15:39.138Z,203.83
2018-01-01T06:18:07.363Z,154.50
2018-01-01T06:20:34.801Z,143.07
2018-01-01T06:23:02.260Z,154.17
2018-01-01T06:25:29.689Z,30.63
2018-01-01T06:27:57.153Z,148.17
2018-01-01T06:30:24.594Z,45.80
2018-01-01T06:32:52.805Z,189.73
2018-01-01T06:35:20.246Z,151.67
2018-01-01T06:37:47.690Z,98.40
2018-01-01T06:40:15.134Z,159.53
2018-01-01T06:42:43.352Z,144.83
2018-01-01T06:45:10.803Z,183.43
2018-01-01T06:47:38.257Z,172.17
2018-01-01T06:50:05.693Z,94.83
2018-01-01T06:52:33.137Z,198.33
2018-01-01T06:55:01.377Z,187.17
2018-01-01T06:57:28.834Z,161.10
2018-01-01T06:59:56.282Z,158.53
2018-01-01T07:02:23.733Z,180.45
2018-01-01T07:04:51.177Z,192.93
2018-01-01T07:07:18.646Z,172.47
2018-01-01T07:09:46.103Z,175.00
2018-01-01T07:12:13.571Z,142.73
2018-01-01T07:14:41.026Z,161.62
2018-01-01T07:17:08.477Z,169.55
2018-01-01T07:19:35.921Z,164.70
2018-01-01T07:22:03.376Z,164.77
2018-01-01T07:24:30.820Z,157.03
2018-01-01T07:26:58.269Z,156.23
2018-01-01T07:29:25.709Z,164.07
2018-01-01T07:31:53.956Z,162.47
2018-01-01T07:34:21.402Z,173.73
2018-01-01T07:36:48.858Z,181.90
2018-01-01T07:39:16.306Z,153.90
2018-01-01T07:41:43.759Z,151.77
2018-01-01T07:44:11.210Z,154.37
2018-01-01T07:46:38.653Z,154.03
2018-01-01T07:49:06.133Z,154.87
2018-01-01T07:51:33.581Z,163.80
2018-01-01T07:54:01.037Z,157.90
2018-01-01T07:56:28.492Z,153.53
2018-01-01T07:58:55.954Z,155.83
2018-01-01T08:01:23.394Z,152.07
2018-01-01T08:03:50.861Z,150.33
2018-01-01T08:06:18.302Z,146.77
2018-01-01T08:08:45.775Z,147.10
2018-01-01T08:11:13.223Z,147.73
2018-01-01T08:13:40.685Z,149.57
2018-01-01T08:16:08.130Z,146.17
2018-01-01T08:18:35.578Z,155.60
2018-01-01T08:21:03.026Z,148.53
2018-01-01T08:23:31.246Z,158.53
2018-01-01T08:25:58.688Z,148.30
2018-01-01T08:28:26.143Z,91.40
2018-01-01T08:30:53.565Z,1.43
2018-01-01T08:33:21.789Z,1.17
2018-01-01T08:35:49.227Z,1.83
2018-01-01T08:38:16.690Z,1.33
2018-01-01T08:40:44.114Z,2.07
2018-01-01T08:43:12.323Z,2.90
2018-01-01T08:45:39.746Z,1.77
2018-01-01T08:48:07.941Z,2.87
2018-01-01T08:50:35.364Z,2.30
2018-01-01T08:53:02.799Z,2.17
2018-01-01T08:55:30.231Z,3.07
2018-01-01T08:57:57.667Z,2.93
2018-01-01T09:00:25.089Z,3.10
2018-01-01T09:02:52.522Z,2.23
2018-01-01T09:05:19.950Z,1.83
2018-01-01T09:07:47.395Z,3.77
2018-01-01T09:10:14.826Z,3.77
2018-01-01T09:12:43.032Z,3.17
2018-01-01T09:15:10.466Z,2.33
2018-01-01T09:17:38.669Z,3.97
2018-01-01T09:20:06.098Z,3.30
2018-01-01T09:22:34.290Z,4.53
2018-01-01T09:25:01.721Z,3.40
2018-01-01T09:27:29.917Z,3.50
2018-01-01T09:29:57.355Z,4.10
2018-01-01T09:32:25.545Z,3.83
2018-01-01T09:34:53.756Z,3.00
2018-01-01T09:37:21.724Z,3.10
2018-01-01T09:39:49.166Z,3.50
2018-01-01T09:42:16.590Z,2.70
2018-01-01T09:44:44.796Z,3.40
2018-01-01T09:47:12.218Z,3.73
2018-01-01T09:49:40.430Z,3.03
2018-01-01T09:52:07.857Z,2.67
2018-01-01T09:54:35.289Z,3.13
2018-01-01T09:57:02.721Z,2.43
2018-01-01T09:59:30.165Z,2.43
2018-01-01T10:01:57.594Z,2.77
2018-01-01T10:04:25.029Z,2.57
2018-01-01T10:06:53.227Z,2.87
2018-01-01T10:09:20.657Z,2.50
2018-01-01T10:11:48.849Z,3.10
2018-01-01T10:14:16.281Z,2.87
2018-01-01T10:16:44.481Z,2.23
2018-01-01T10:19:11.945Z,2.73
2018-01-01T10:21:40.100Z,2.90
2018-01-01T10:24:08.293Z,2.37
2018-01-01T10:26:35.731Z,2.70
2018-01-01T10:29:03.935Z,2.13
2018-01-01T10:31:31.361Z,1.83
2018-01-01T10:33:59.558Z,2.43
2018-01-01T10:36:26.977Z,2.87
2018-01-01T10:38:54.416Z,2.60
2018-01-01T10:41:21.837Z,2.27
2018-01-01T10:43:49.286Z,3.00
2018-01-01T10:46:16.712Z,2.20
2018-01-01T10:48:44.905Z,2.03
2018-01-01T10:51:12.492Z,2.80
2018-01-01T10:53:39.937Z,2.37
2018-01-01T10:56:07.362Z,1.90
2018-01-01T10:58:35.563Z,2.30
2018-01-01T11:01:02.993Z,2.60
2018-01-01T11:03:31.198Z,2.70
2018-01-01T11:05:59.395Z,2.63
2018-01-01T11:08:26.821Z,2.33
2018-01-01T11:10:54.254Z,2.20
2018-01-01T11:13:22.456Z,1.80
2018-01-01T11:15:49.890Z,41.00
2018-01-01T11:18:18.111Z,2.07
2018-01-01T11:20:45.541Z,2.80
2018-01-01T11:23:12.966Z,1.60
2018-01-01T11:25:41.165Z,4.23
2018-01-01T11:28:08.590Z,1.67
2018-01-01T11:30:36.034Z,0.93
2018-01-01T11:33:03.461Z,1.67
2018-01-01T11:35:30.893Z,2.00
2018-01-01T11:37:58.333Z,1.50
2018-01-01T11:40:26.535Z,1.50
2018-01-01T11:42:53.959Z,1.77
2018-01-01T11:45:22.153Z,1.27
2018-01-01T11:47:49.574Z,1.50
2018-01-01T11:50:17.014Z,1.70
2018-01-01T11:52:44.441Z,1.50
2018-01-01T11:55:12.655Z,1.40
2018-01-01T11:57:40.069Z,1.50
2018-01-01T12:00:07.507Z,1.47
2018-01-01T12:02:34.938Z,1.23
2018-01-01T12:05:02.377Z,1.50
2018-01-01T12:07:29.810Z,1.50
2018-01-01T12:09:57.249Z,1.47
2018-01-01T12:12:24.702Z,1.53
2018-01-01T12:14:52.878Z,1.70
2018-01-01T12:17:20.306Z,1.50
2018-01-01T12:19:48.511Z,1.60
2018-01-01T12:22:15.938Z,1.77
2018-01-01T12:24:44.169Z,1.53
2018-01-01T12:27:11.606Z,1.60
2018-01-01T12:29:39.040Z,1.80
2018-01-01T12:32:06.475Z,1.63
2018-01-01T12:34:34.680Z,1.93
2018-01-01T12:37:02.117Z,1.90
2018-01-01T12:39:30.309Z,1.40
2018-01-01T12:41:57.758Z,2.20
2018-01-01T12:44:25.205Z,1.70
2018-01-01T12:46:53.408Z,2.07
2018-01-01T12:49:20.847Z,1.90
2018-01-01T12:51:48.274Z,1.63
2018-01-01T12:54:15.713Z,1.40
2018-01-01T12:56:43.142Z,1.30
2018-01-01T12:59:10.574Z,1.80
2018-01-01T13:01:38.014Z,1.70
2018-01-01T13:04:05.441Z,1.43
2018-01-01T13:06:32.878Z,1.30
2018-01-01T13:09:00.303Z,1.70
2018-01-01T13:11:27.745Z,1.83
2018-01-01T13:13:55.926Z,1.60
2018-01-01T13:16:23.358Z,1.70
2018-01-01T13:18:50.786Z,2.50
2018-01-01T13:21:18.238Z,2.23
2018-01-01T13:23:45.668Z,1.60
2018-01-01T13:26:13.106Z,1.40
2018-01-01T13:28:41.333Z,1.87
2018-01-01T13:31:08.761Z,1.87
2018-01-01T13:33:36.196Z,1.50
2018-01-01T13:36:03.644Z,1.90
2018-01-01T13:38:31.834Z,2.20
2018-01-01T13:40:59.270Z,2.00
2018-01-01T13:43:27.508Z,2.00
2018-01-01T13:45:54.946Z,3.07
2018-01-01T13:48:22.369Z,2.20
2018-01-01T13:50:50.566Z,1.83
2018-01-01T13:53:18.000Z,2.00
2018-01-01T13:55:46.217Z,104.20
2018-01-01T13:58:13.658Z,152.77
2018-01-01T14:00:41.106Z,141.67
2018-01-01T14:03:08.598Z,52.67
2018-01-01T14:05:35.994Z,64.87
2018-01-01T14:08:04.244Z,1.93
2018-01-01T14:10:31.677Z,2.20
2018-01-01T14:12:59.097Z,1.10
2018-01-01T14:15:26.542Z,93.80
2018-01-01T14:17:54.752Z,25.10
2018-01-01T14:20:22.201Z,1.63
2018-01-01T14:22:49.638Z,93.90
2018-01-01T14:25:17.848Z,125.53
2018-01-01T14:27:45.304Z,186.37
2018-01-01T14:30:12.742Z,93.83
2018-01-01T14:32:40.178Z,140.03
2018-01-01T14:35:08.389Z,185.07
2018-01-01T14:37:35.830Z,194.43
2018-01-01T14:40:03.287Z,176.53
2018-01-01T14:42:30.731Z,183.40
2018-01-01T14:44:58.186Z,162.97
2018-01-01T14:47:25.621Z,121.40
2018-01-01T14:49:53.842Z,149.97
2018-01-01T14:52:21.293Z,131.07
2018-01-01T14:54:48.742Z,129.03
2018-01-01T14:57:16.186Z,124.03
2018-01-01T14:59:43.633Z,137.53
2018-01-01T15:02:11.842Z,145.90
2018-01-01T15:04:39.292Z,138.67
2018-01-01T15:07:06.753Z,135.33
2018-01-01T15:09:34.189Z,137.50
2018-01-01T15:12:01.641Z,142.70
2018-01-01T15:14:29.860Z,146.67
2018-01-01T15:16:57.310Z,153.47
2018-01-01T15:19:25.543Z,142.17
2018-01-01T15:21:53.756Z,137.97
2018-01-01T15:24:21.205Z,138.10
2018-01-01T15:26:48.661Z,132.80
2018-01-01T15:29:16.107Z,132.00
2018-01-01T15:31:43.555Z,133.20
2018-01-01T15:34:11.753Z,144.30
2018-01-01T15:36:39.202Z,144.23
2018-01-01T15:39:06.637Z,146.53
2018-01-01T15:41:34.849Z,142.77
2018-01-01T15:44:02.294Z,145.00
2018-01-01T15:46:29.751Z,137.63
2018-01-01T15:48:57.186Z,138.83
2018-01-01T15:51:24.636Z,147.17
2018-01-01T15:53:52.842Z,134.17
2018-01-01T15:56:20.294Z,137.87
2018-01-01T15:58:47.733Z,138.17
2018-01-01T16:01:15.950Z,132.63
2018-01-01T16:03:43.392Z,138.30
2018-01-01T16:06:11.614Z,149.63
2018-01-01T16:08:39.051Z,153.87
2018-01-01T16:11:06.501Z,144.43
2018-01-01T16:13:33.938Z,137.93
2018-01-01T16:16:01.409Z,133.97
2018-01-01T16:18:28.847Z,130.67
2018-01-01T16:20:56.297Z,104.37
2018-01-01T16:23:23.737Z,100.50
2018-01-01T16:25:51.957Z,87.77
2018-01-01T16:28:19.398Z,121.03
2018-01-01T16:30:46.850Z,114.60
2018-01-01T16:33:14.287Z,123.50
2018-01-01T16:35:41.732Z,130.07
2018-01-01T16:38:09.936Z,130.67
2018-01-01T16:40:37.382Z,126.60
2018-01-01T16:43:04.821Z,127.33
2018-01-01T16:45:33.039Z,136.07
2018-01-01T16:48:00.486Z,134.90
2018-01-01T16:50:27.953Z,135.50
2018-01-01T16:52:55.385Z,140.40
2018-01-01T16:55:22.821Z,128.57
2018-01-01T16:57:51.032Z,134.07
2018-01-01T17:00:18.478Z,134.40
2018-01-01T17:02:45.925Z,128.57
2018-01-01T17:05:13.370Z,124.13
2018-01-01T17:07:41.581Z,127.50
2018-01-01T17:10:09.022Z,125.37
2018-01-01T17:12:36.489Z,127.97
2018-01-01T17:15:03.947Z,141.70
2018-01-01T17:17:31.398Z,141.10
2018-01-01T17:19:58.831Z,132.73
2018-01-01T17:22:26.283Z,133.97
2018-01-01T17:24:54.482Z,134.83
2018-01-01T17:27:21.925Z,139.37
2018-01-01T17:29:49.363Z,145.77
2018-01-01T17:32:17.585Z,149.80
2018-01-01T17:34:45.038Z,112.13
2018-01-01T17:37:12.477Z,108.13
2018-01-01T17:39:39.920Z,132.40
2018-01-01T17:42:08.138Z,129.87
2018-01-01T17:44:35.594Z,133.70
2018-01-01T17:47:03.038Z,138.93
2018-01-01T17:49:30.482Z,123.33
2018-01-01T17:51:57.934Z,125.53
2018-01-01T17:54:25.370Z,122.83
2018-01-01T17:56:53.591Z,132.10
2018-01-01T17:59:21.053Z,120.90
2018-01-01T18:01:48.501Z,118.20
2018-01-01T18:04:15.955Z,117.60
2018-01-01T18:06:43.410Z,120.83
2018-01-01T18:09:10.854Z,123.00
2018-01-01T18:11:38.309Z,116.37
2018-01-01T18:14:05.750Z,109.30
2018-01-01T18:16:33.961Z,113.33
2018-01-01T18:19:01.407Z,122.43
2018-01-01T18:21:28.854Z,116.00
2018-01-01T18:23:56.310Z,125.00
2018-01-01T18:26:23.758Z,127.70
2018-01-01T18:28:51.193Z,119.53
2018-01-01T18:31:19.409Z,113.77
2018-01-01T18:33:46.853Z,115.07
2018-01-01T18:36:14.325Z,118.40
2018-01-01T18:38:41.769Z,111.67
2018-01-01T18:41:09.234Z,112.50
2018-01-01T18:43:36.697Z,113.13
2018-01-01T18:46:04.139Z,115.67
2018-01-01T18:48:31.592Z,118.87
2018-01-01T18:50:59.043Z,111.37
2018-01-01T18:53:27.263Z,113.97
2018-01-01T18:55:54.704Z,112.70
2018-01-01T18:58:22.163Z,116.10
2018-01-01T19:00:49.611Z,113.53
2018-01-01T19:03:17.073Z,115.97
2018-01-01T19:05:44.526Z,121.40
2018-01-01T19:08:11.979Z,117.30
2018-01-01T19:10:39.442Z,122.60
2018-01-01T19:13:06.891Z,116.77
2018-01-01T19:15:34.329Z,115.60
2018-01-01T19:18:02.541Z,114.63
2018-01-01T19:20:29.989Z,121.37
2018-01-01T19:22:57.442Z,118.23
2018-01-01T19:25:24.911Z,117.60
2018-01-01T19:27:52.350Z,118.27
2018-01-01T19:30:19.822Z,110.00
2018-01-01T19:32:47.263Z,117.07
2018-01-01T19:35:14.769Z,125.53
2018-01-01T19:37:42.216Z,112.27
2018-01-01T19:40:09.657Z,104.53
2018-01-01T19:42:37.093Z,116.17
2018-01-01T19:45:04.543Z,121.00
2018-01-01T19:47:31.981Z,112.87
2018-01-01T19:50:00.203Z,117.40
2018-01-01T19:52:27.654Z,112.50
2018-01-01T19:54:55.109Z,126.00
2018-01-01T19:57:22.562Z,116.70
2018-01-01T19:59:50.010Z,125.97
2018-01-01T20:02:17.458Z,124.80
2018-01-01T20:04:44.902Z,123.93
2018-01-01T20:07:12.346Z,121.73
2018-01-01T20:09:40.561Z,129.33
2018-01-01T20:12:08.002Z,122.00
2018-01-01T20:14:35.454Z,120.40
2018-01-01T20:17:02.896Z,119.70
2018-01-01T20:19:31.134Z,118.93
2018-01-01T20:21:58.570Z,124.83
2018-01-01T20:24:26.056Z,128.97
2018-01-01T20:26:53.492Z,130.90
2018-01-01T20:29:20.954Z,138.27
2018-01-01T20:31:48.409Z,139.60
2018-01-01T20:34:15.866Z,126.70
2018-01-01T20:36:43.339Z,132.87
2018-01-01T20:39:10.782Z,145.23
2018-01-01T20:41:38.233Z,138.73
2018-01-01T20:44:05.670Z,125.87
2018-01-01T20:46:33.122Z,125.50
2018-01-01T20:49:00.569Z,122.97
2018-01-01T20:51:28.025Z,123.67
2018-01-01T20:53:55.470Z,129.93
2018-01-01T20:56:23.683Z,127.73
2018-01-01T20:58:51.130Z,121.40
2018-01-01T21:01:18.574Z,123.97
2018-01-01T21:03:46.009Z,134.07
2018-01-01T21:06:14.222Z,136.10
2018-01-01T21:08:41.656Z,126.07
2018-01-01T21:11:09.873Z,133.47
2018-01-01T21:13:37.309Z,131.50
2018-01-01T21:16:04.758Z,130.60
2018-01-01T21:18:32.193Z,135.60
2018-01-01T21:21:00.415Z,141.27
2018-01-01T21:23:27.847Z,140.07
2018-01-01T21:25:55.290Z,136.93
2018-01-01T21:28:22.734Z,127.17
2018-01-01T21:30:50.950Z,128.83
2018-01-01T21:33:18.399Z,128.40
2018-01-01T21:35:45.841Z,128.47
2018-01-01T21:38:13.285Z,126.10
2018-01-01T21:40:41.493Z,125.60
2018-01-01T21:43:08.939Z,128.57
2018-01-01T21:45:36.398Z,123.30
2018-01-01T21:48:03.847Z,120.30
2018-01-01T21:50:31.301Z,120.73
2018-01-01T21:52:58.739Z,119.60
2018-01-01T21:55:26.950Z,120.93
2018-01-01T21:57:54.399Z,122.80
2018-01-01T22:00:21.855Z,118.00
2018-01-01T22:02:49.297Z,120.80
2018-01-01T22:05:16.742Z,122.63
2018-01-01T22:07:44.957Z,125.07
2018-01-01T22:10:12.404Z,124.40
2018-01-01T22:12:39.845Z,125.00
2018-01-01T22:15:07.282Z,127.40
2018-01-01T22:17:35.489Z,122.83
2018-01-01T22:20:02.925Z,120.83
2018-01-01T22:22:31.141Z,122.50
2018-01-01T22:24:58.579Z,117.33
2018-01-01T22:27:26.018Z,119.50
2018-01-01T22:29:53.457Z,111.90
2018-01-01T22:32:21.686Z,117.13
2018-01-01T22:34:49.134Z,119.10
2018-01-01T22:37:16.606Z,114.90
2018-01-01T22:39:44.058Z,116.07
2018-01-01T22:42:11.526Z,113.27
2018-01-01T22:44:38.969Z,111.97
2018-01-01T22:47:06.415Z,113.40
2018-01-01T22:49:33.873Z,111.97
2018-01-01T22:52:01.318Z,112.17
2018-01-01T22:54:28.766Z,110.93
2018-01-01T22:56:56.218Z,112.40
2018-01-01T22:59:23.657Z,106.67
2018-01-01T23:01:51.873Z,108.43
2018-01-01T23:04:19.328Z,102.90
2018-01-01T23:06:46.777Z,108.50
2018-01-01T23:09:14.226Z,111.50
2018-01-01T23:11:41.667Z,108.13
2018-01-01T23:14:09.898Z,107.93
2018-01-01T23:16:37.346Z,109.50
2018-01-01T23:19:04.795Z,106.67
2018-01-01T23:21:32.237Z,106.67
2018-01-01T23:23:59.694Z,108.00
2018-01-01T23:26:27.138Z,108.63
2018-01-01T23:28:54.586Z,109.50
2018-01-01T23:31:22.790Z,109.27
2018-01-01T23:33:50.244Z,111.20
2018-01-01T23:36:17.677Z,111.50
2018-01-01T23:38:45.889Z,108.73
2018-01-01T23:41:13.331Z,110.10
2018-01-01T23:43:40.779Z,106.53
2018-01-01T23:46:08.213Z,110.07
2018-01-01T23:48:36.430Z,106.07
2018-01-01T23:51:03.870Z,108.67
2018-01-01T23:53:31.317Z,104.93
2018-01-01T23:55:58.775Z,103.30
2018-01-01T23:58:26.218Z,104.07
